Time;durP1;ratioP1;P1;durP2;ratioP2;P2;SDS_P1;SDS_P2;PMS_P1;PMS_P2;Temp;Humidity;BMP_temperature;BMP_pressure;BME280_temperature;BME280_humidity;BME280_pressure;Samples;Min_cycle;Max_cycle;Signal;HPM_P1;HPM_P2
2022/01/20 00:03:21;;;;;;;5.27;2.07;;;;;;;;;;5072028;28;20024;-70
2022/01/20 00:08:48;;;;;;;5.90;2.23;;;;;;;;;;5074322;28;20135;-69
2022/01/20 00:28:15;;;;;;;5.60;2.07;;;;;;;;;;5073404;28;20090;-68
2022/01/20 00:30:55;;;;;;;5.33;2.57;;;;;;;;;;5072862;28;20029;-69
2022/01/20 00:33:41;;;;;;;16.13;2.90;;;;;;;;;;5073389;28;20028;-68
2022/01/20 00:38:35;;;;;;;7.17;3.13;;;;;;;;;;5069468;28;20064;-69
2022/01/20 00:41:02;;;;;;;3.00;2.03;;;;;;;;;;5067988;28;20422;-69
2022/01/20 00:43:29;;;;;;;5.77;2.20;;;;;;;;;;5068082;28;20056;-69
2022/01/20 00:45:56;;;;;;;4.77;1.97;;;;;;;;;;5076221;28;20438;-69
2022/01/20 00:48:23;;;;;;;5.23;2.00;;;;;;;;;;5072741;28;20546;-69
2022/01/20 00:50:50;;;;;;;4.20;2.20;;;;;;;;;;5072153;28;20033;-69
2022/01/20 00:53:17;;;;;;;6.70;2.30;;;;;;;;;;5073385;28;20383;-69
2022/01/20 00:55:44;;;;;;;3.57;1.70;;;;;;;;;;5068603;28;20387;-69
2022/01/20 00:58:11;;;;;;;3.70;1.90;;;;;;;;;;5053127;28;20029;-69
2022/01/20 01:00:38;;;;;;;5.57;1.80;;;;;;;;;;5051416;28;20104;-69
2022/01/20 01:03:05;;;;;;;6.37;1.70;;;;;;;;;;5048179;28;20047;-69
2022/01/20 01:05:36;;;;;;;5.50;3.40;;;;;;;;;;5050418;28;20048;-69
2022/01/20 01:08:03;;;;;;;6.47;2.77;;;;;;;;;;5067928;28;20352;-69
2022/01/20 01:10:31;;;;;;;7.10;2.83;;;;;;;;;;5068048;28;20029;-69
2022/01/20 01:13:11;;;;;;;7.37;2.30;;;;;;;;;;5072913;28;20020;-69
2022/01/20 01:15:43;;;;;;;5.47;2.40;;;;;;;;;;5059905;28;20048;-69
2022/01/20 01:21:12;;;;;;;4.03;1.63;;;;;;;;;;5052629;28;20043;-69
2022/01/20 01:23:41;;;;;;;6.87;1.90;;;;;;;;;;5050605;28;20032;-69
2022/01/20 01:26:09;;;;;;;3.10;1.50;;;;;;;;;;5063792;28;20116;-68
2022/01/20 01:28:35;;;;;;;5.17;1.37;;;;;;;;;;5067299;28;20372;-68
2022/01/20 01:31:25;;;;;;;3.20;1.70;;;;;;;;;;5067521;28;20028;-68
2022/01/20 01:33:56;;;;;;;2.50;1.40;;;;;;;;;;5068951;28;20447;-68
2022/01/20 01:36:24;;;;;;;4.13;1.50;;;;;;;;;;5070403;28;20025;-68
2022/01/20 01:38:51;;;;;;;3.03;1.70;;;;;;;;;;5061579;28;20486;-65
2022/01/20 01:41:26;;;;;;;3.03;1.60;;;;;;;;;;5057449;28;20021;-68
2022/01/20 01:43:54;;;;;;;4.47;1.90;;;;;;;;;;5072436;28;20362;-68
2022/01/20 01:46:21;;;;;;;4.93;1.90;;;;;;;;;;5058957;28;20059;-68
2022/01/20 01:48:49;;;;;;;4.13;2.20;;;;;;;;;;5047349;28;20419;-69
2022/01/20 01:51:16;;;;;;;4.63;2.27;;;;;;;;;;5047247;28;20455;-67
2022/01/20 01:53:43;;;;;;;7.03;2.53;;;;;;;;;;5047328;28;20056;-68
2022/01/20 01:56:09;;;;;;;5.23;3.00;;;;;;;;;;5048943;28;20371;-72
2022/01/20 01:58:36;;;;;;;6.20;2.90;;;;;;;;;;5059027;28;20458;-71
2022/01/20 02:01:03;;;;;;;8.33;2.80;;;;;;;;;;5072110;28;20479;-71
2022/01/20 02:03:31;;;;;;;5.00;2.40;;;;;;;;;;5071267;28;20025;-71
2022/01/20 02:20:00;;;;;;;7.63;3.17;;;;;;;;;;5071945;28;20478;-72
2022/01/20 02:22:27;;;;;;;4.70;2.50;;;;;;;;;;5072183;28;20107;-71
2022/01/20 02:24:54;;;;;;;4.90;2.40;;;;;;;;;;5072290;28;20100;-71
2022/01/20 02:27:20;;;;;;;7.73;2.90;;;;;;;;;;5072256;28;20147;-71
2022/01/20 02:29:48;;;;;;;4.50;3.00;;;;;;;;;;5054174;28;20044;-71
2022/01/20 02:32:14;;;;;;;8.67;2.70;;;;;;;;;;5047111;28;20025;-71
2022/01/20 02:34:41;;;;;;;8.17;2.67;;;;;;;;;;5046857;28;20033;-71
2022/01/20 02:37:12;;;;;;;11.33;3.10;;;;;;;;;;5047166;28;20029;-72
2022/01/20 02:44:53;;;;;;;4.60;2.50;;;;;;;;;;5070681;28;20114;-71
2022/01/20 02:47:21;;;;;;;8.47;2.63;;;;;;;;;;5068429;28;20077;-72
2022/01/20 02:49:49;;;;;;;7.37;2.70;;;;;;;;;;5071701;28;20040;-72
2022/01/20 02:52:15;;;;;;;4.73;2.57;;;;;;;;;;5071521;28;20016;-71
2022/01/20 02:54:43;;;;;;;4.90;2.40;;;;;;;;;;5060888;28;20492;-71
2022/01/20 02:57:10;;;;;;;6.70;2.40;;;;;;;;;;5046776;28;20029;-71
2022/01/20 02:59:38;;;;;;;5.90;2.77;;;;;;;;;;5047811;28;20021;-71
2022/01/20 03:02:05;;;;;;;6.53;2.83;;;;;;;;;;5061302;28;20487;-71
2022/01/20 03:04:33;;;;;;;4.27;2.50;;;;;;;;;;5071459;28;20024;-71
2022/01/20 03:07:00;;;;;;;4.60;3.00;;;;;;;;;;5071926;28;20467;-71
2022/01/20 03:09:27;;;;;;;6.17;2.77;;;;;;;;;;5071613;28;20037;-71
2022/01/20 03:11:54;;;;;;;6.80;2.97;;;;;;;;;;5058568;28;20041;-71
2022/01/20 03:14:21;;;;;;;6.00;2.33;;;;;;;;;;5053198;28;20584;-71
2022/01/20 03:16:48;;;;;;;8.03;2.77;;;;;;;;;;5050284;28;20025;-71
2022/01/20 03:19:15;;;;;;;5.30;2.73;;;;;;;;;;5050430;28;20021;-71
2022/01/20 03:21:42;;;;;;;7.80;2.60;;;;;;;;;;5050244;28;20480;-71
2022/01/20 03:24:10;;;;;;;5.20;2.60;;;;;;;;;;5066533;28;20020;-71
2022/01/20 03:26:37;;;;;;;6.73;2.70;;;;;;;;;;5074369;28;20027;-71
2022/01/20 03:29:04;;;;;;;4.90;2.67;;;;;;;;;;5074613;28;20440;-71
2022/01/20 03:31:34;;;;;;;5.33;1.90;;;;;;;;;;5064682;28;20051;-70
2022/01/20 03:34:04;;;;;;;5.97;2.53;;;;;;;;;;5054998;28;20108;-71
2022/01/20 03:36:31;;;;;;;5.73;2.43;;;;;;;;;;5055160;28;20033;-70
2022/01/20 03:38:58;;;;;;;5.63;2.30;;;;;;;;;;5050410;28;20032;-70
2022/01/20 03:41:25;;;;;;;3.10;1.80;;;;;;;;;;5057888;28;20024;-71
2022/01/20 03:43:53;;;;;;;3.03;1.70;;;;;;;;;;5069296;28;20028;-71
2022/01/20 03:46:20;;;;;;;4.30;2.03;;;;;;;;;;5056298;28;20494;-70
2022/01/20 03:48:52;;;;;;;5.73;2.67;;;;;;;;;;5053310;28;20040;-71
2022/01/20 03:51:21;;;;;;;4.67;2.50;;;;;;;;;;5054877;28;20017;-71
2022/01/20 03:53:52;;;;;;;5.87;3.03;;;;;;;;;;5067347;28;20021;-70
2022/01/20 03:56:20;;;;;;;5.23;1.90;;;;;;;;;;5074521;28;20467;-71
2022/01/20 03:58:47;;;;;;;3.57;1.70;;;;;;;;;;5074215;28;20110;-70
2022/01/20 04:01:17;;;;;;;4.20;2.23;;;;;;;;;;5069852;28;20027;-70
2022/01/20 04:03:44;;;;;;;6.60;2.00;;;;;;;;;;5069368;28;20510;-71
2022/01/20 04:06:11;;;;;;;8.07;2.10;;;;;;;;;;5051435;28;20117;-70
2022/01/20 04:08:40;;;;;;;5.47;1.90;;;;;;;;;;5049397;28;20061;-70
2022/01/20 04:11:08;;;;;;;6.63;3.03;;;;;;;;;;5053383;28;20028;-70
2022/01/20 04:13:36;;;;;;;6.63;2.20;;;;;;;;;;5054079;28;20024;-70
2022/01/20 04:16:14;;;;;;;6.50;1.87;;;;;;;;;;5054425;28;20462;-71
2022/01/20 04:18:51;;;;;;;10.10;2.40;;;;;;;;;;5074330;28;20019;-70
2022/01/20 04:21:19;;;;;;;7.80;2.27;;;;;;;;;;5074085;28;20026;-69
2022/01/20 04:23:46;;;;;;;4.43;1.70;;;;;;;;;;5068803;28;20035;-72
2022/01/20 04:26:13;;;;;;;6.47;1.93;;;;;;;;;;5069077;28;20378;-70
2022/01/20 04:28:40;;;;;;;3.27;1.57;;;;;;;;;;5067006;28;20519;-71
2022/01/20 04:31:07;;;;;;;9.30;1.83;;;;;;;;;;5069023;28;20099;-70
2022/01/20 04:33:34;;;;;;;4.53;2.40;;;;;;;;;;5073129;28;20058;-71
2022/01/20 04:36:00;;;;;;;6.77;2.07;;;;;;;;;;5074010;28;20036;-69
2022/01/20 04:38:27;;;;;;;6.00;2.00;;;;;;;;;;5073698;28;20028;-70
2022/01/20 04:40:54;;;;;;;6.43;1.50;;;;;;;;;;5066466;28;20090;-71
2022/01/20 04:43:21;;;;;;;3.27;1.50;;;;;;;;;;5053731;28;20029;-69
2022/01/20 04:45:56;;;;;;;3.40;1.53;;;;;;;;;;5048851;28;20029;-69
2022/01/20 04:48:48;;;;;;;;;;;;;;;;;;5049061;28;20098;-71
2022/01/20 04:59:30;;;;;;;2.10;1.42;;;;;;;;;;5053360;28;20059;-71
2022/01/20 05:01:57;;;;;;;3.90;1.57;;;;;;;;;;5053405;28;20040;-71
2022/01/20 05:04:25;;;;;;;4.17;1.23;;;;;;;;;;5056265;28;20085;-71
2022/01/20 05:06:55;;;;;;;7.20;1.53;;;;;;;;;;5071099;28;20383;-71
2022/01/20 05:09:22;;;;;;;2.93;1.70;;;;;;;;;;5067843;28;20794;-71
2022/01/20 05:11:57;;;;;;;2.47;1.13;;;;;;;;;;5068078;28;20035;-71
2022/01/20 05:14:24;;;;;;;7.33;1.30;;;;;;;;;;5068096;28;20050;-71
2022/01/20 05:16:53;;;;;;;3.80;1.80;;;;;;;;;;5060531;28;20025;-71
2022/01/20 05:19:20;;;;;;;2.63;1.50;;;;;;;;;;5053318;28;20028;-70
2022/01/20 05:21:47;;;;;;;2.60;1.30;;;;;;;;;;5053074;28;20032;-70
2022/01/20 05:24:14;;;;;;;3.20;1.50;;;;;;;;;;5052324;28;20025;-70
2022/01/20 05:26:41;;;;;;;3.10;1.27;;;;;;;;;;5053135;28;20025;-70
2022/01/20 05:29:08;;;;;;;3.93;1.80;;;;;;;;;;5062191;28;20068;-71
2022/01/20 05:31:35;;;;;;;3.10;1.50;;;;;;;;;;5067872;28;20032;-71
2022/01/20 05:34:01;;;;;;;3.40;1.57;;;;;;;;;;5067711;28;20028;-70
2022/01/20 05:36:28;;;;;;;7.10;1.67;;;;;;;;;;5067461;28;20047;-70
2022/01/20 05:38:55;;;;;;;2.63;1.20;;;;;;;;;;5069050;28;20056;-71
2022/01/20 05:41:22;;;;;;;3.97;1.20;;;;;;;;;;5057477;28;20034;-71
2022/01/20 05:43:49;;;;;;;7.50;1.60;;;;;;;;;;5052711;28;20028;-70
2022/01/20 05:46:17;;;;;;;3.17;1.47;;;;;;;;;;5052615;28;20028;-71
2022/01/20 05:48:48;;;;;;;4.03;1.30;;;;;;;;;;5052593;28;20071;-71
2022/01/20 05:51:15;;;;;;;2.83;1.20;;;;;;;;;;5050816;28;20462;-70
2022/01/20 05:53:42;;;;;;;2.10;1.00;;;;;;;;;;5061328;28;20037;-71
2022/01/20 05:56:08;;;;;;;4.97;1.23;;;;;;;;;;5067138;28;20514;-70
2022/01/20 05:58:36;;;;;;;2.40;1.40;;;;;;;;;;5067330;28;20048;-71
2022/01/20 06:01:05;;;;;;;3.60;1.70;;;;;;;;;;5068580;28;20024;-70
2022/01/20 06:03:38;;;;;;;3.20;1.20;;;;;;;;;;5072333;28;20559;-70
2022/01/20 06:06:09;;;;;;;3.10;1.43;;;;;;;;;;5035781;28;20390;-70
2022/01/20 06:08:37;;;;;;;4.53;1.63;;;;;;;;;;5052130;28;20111;-70
2022/01/20 06:11:04;;;;;;;4.53;1.23;;;;;;;;;;5052140;28;20438;-71
2022/01/20 06:13:31;;;;;;;3.17;1.80;;;;;;;;;;5050362;28;20029;-70
2022/01/20 06:15:59;;;;;;;4.30;1.60;;;;;;;;;;5047179;28;20029;-70
2022/01/20 06:18:25;;;;;;;2.53;1.30;;;;;;;;;;5047181;28;20037;-70
2022/01/20 06:20:52;;;;;;;4.90;1.47;;;;;;;;;;5047242;28;20479;-71
2022/01/20 06:23:20;;;;;;;5.57;1.90;;;;;;;;;;5066034;28;20052;-70
2022/01/20 06:25:47;;;;;;;2.30;1.30;;;;;;;;;;5071985;28;20371;-70
2022/01/20 06:28:14;;;;;;;3.80;1.63;;;;;;;;;;5053541;28;20036;-70
2022/01/20 06:30:41;;;;;;;3.23;1.20;;;;;;;;;;5052105;28;20484;-71
2022/01/20 06:33:08;;;;;;;4.87;1.40;;;;;;;;;;5051992;28;20032;-67
2022/01/20 06:35:35;;;;;;;3.13;1.40;;;;;;;;;;5050572;28;20096;-67
2022/01/20 06:38:02;;;;;;;2.23;1.20;;;;;;;;;;5062107;28;20492;-68
2022/01/20 06:40:30;;;;;;;7.07;1.50;;;;;;;;;;5066997;28;20445;-67
2022/01/20 06:42:57;;;;;;;4.37;1.20;;;;;;;;;;5067051;28;20438;-71
2022/01/20 06:45:24;;;;;;;4.13;1.70;;;;;;;;;;5060051;28;20023;-68
2022/01/20 06:47:51;;;;;;;2.27;1.13;;;;;;;;;;5051990;28;20084;-67
2022/01/20 06:50:19;;;;;;;5.10;1.40;;;;;;;;;;5054769;28;20028;-66
2022/01/20 06:52:46;;;;;;;2.37;1.17;;;;;;;;;;5055828;28;20024;-67
2022/01/20 06:55:13;;;;;;;2.03;1.10;;;;;;;;;;5060363;28;20027;-69
2022/01/20 06:57:41;;;;;;;5.93;1.50;;;;;;;;;;5054592;28;20013;-68
2022/01/20 07:00:09;;;;;;;3.70;1.53;;;;;;;;;;5050913;28;20052;-67
2022/01/20 07:02:36;;;;;;;9.33;1.73;;;;;;;;;;5050752;28;20480;-69
2022/01/20 07:05:03;;;;;;;3.67;1.30;;;;;;;;;;5050656;28;20025;-69
2022/01/20 07:07:31;;;;;;;3.40;1.30;;;;;;;;;;5068458;28;20509;-67
2022/01/20 07:09:58;;;;;;;3.00;1.30;;;;;;;;;;5075375;28;20379;-68
2022/01/20 07:12:25;;;;;;;2.57;1.10;;;;;;;;;;5075133;28;20035;-68
2022/01/20 07:14:52;;;;;;;2.10;1.20;;;;;;;;;;5075519;28;20024;-67
2022/01/20 07:17:19;;;;;;;3.70;1.90;;;;;;;;;;5075457;28;20378;-67
2022/01/20 07:19:46;;;;;;;4.97;1.90;;;;;;;;;;5056529;28;20032;-68
2022/01/20 07:22:13;;;;;;;5.37;1.87;;;;;;;;;;5050121;28;20040;-69
2022/01/20 07:24:39;;;;;;;3.20;1.30;;;;;;;;;;5050172;28;20028;-69
2022/01/20 07:27:06;;;;;;;2.23;1.10;;;;;;;;;;5050180;28;20059;-69
2022/01/20 07:29:33;;;;;;;5.77;1.63;;;;;;;;;;5050791;28;20039;-69
2022/01/20 07:32:01;;;;;;;3.43;1.30;;;;;;;;;;5074938;28;20023;-69
2022/01/20 07:34:28;;;;;;;4.73;1.67;;;;;;;;;;5074999;28;20046;-69
2022/01/20 07:36:55;;;;;;;3.23;1.73;;;;;;;;;;5074889;28;20103;-69
2022/01/20 07:39:22;;;;;;;3.93;2.00;;;;;;;;;;5061641;28;20035;-70
2022/01/20 07:41:49;;;;;;;4.73;2.10;;;;;;;;;;5054713;28;20029;-69
2022/01/20 07:44:17;;;;;;;3.03;1.80;;;;;;;;;;5049666;28;20025;-69
2022/01/20 07:46:47;;;;;;;3.73;1.70;;;;;;;;;;5049766;28;20262;-70
2022/01/20 07:49:14;;;;;;;4.87;1.67;;;;;;;;;;5060134;28;20036;-69
2022/01/20 07:51:41;;;;;;;3.73;1.70;;;;;;;;;;5069617;28;20094;-69
2022/01/20 07:54:08;;;;;;;5.93;2.07;;;;;;;;;;5074532;28;20021;-69
2022/01/20 07:56:34;;;;;;;3.27;1.50;;;;;;;;;;5074779;28;20029;-69
2022/01/20 07:59:01;;;;;;;8.10;2.30;;;;;;;;;;5074526;28;20065;-69
2022/01/20 08:01:28;;;;;;;4.27;1.87;;;;;;;;;;5063447;28;20616;-69
2022/01/20 08:03:55;;;;;;;6.57;2.00;;;;;;;;;;5054444;28;20025;-69
2022/01/20 08:06:22;;;;;;;3.03;1.50;;;;;;;;;;5049446;28;20262;-69
2022/01/20 08:08:53;;;;;;;3.57;1.73;;;;;;;;;;5049257;28;20040;-69
2022/01/20 08:11:22;;;;;;;2.63;1.43;;;;;;;;;;5049436;28;20651;-69
2022/01/20 08:13:48;;;;;;;4.90;2.30;;;;;;;;;;5063776;28;20017;-69
2022/01/20 08:16:15;;;;;;;4.07;1.90;;;;;;;;;;5073473;28;20257;-69
2022/01/20 08:18:42;;;;;;;5.50;2.00;;;;;;;;;;5073938;28;20679;-69
2022/01/20 08:21:09;;;;;;;3.37;1.60;;;;;;;;;;5074357;28;20251;-69
2022/01/20 08:23:36;;;;;;;4.90;1.67;;;;;;;;;;5074308;28;20353;-69
2022/01/20 08:26:03;;;;;;;4.90;1.67;;;;;;;;;;5057814;28;20262;-69
2022/01/20 08:28:30;;;;;;;3.27;1.60;;;;;;;;;;5048910;28;20294;-69
2022/01/20 08:30:57;;;;;;;4.73;1.67;;;;;;;;;;5048504;28;20297;-69
2022/01/20 08:33:24;;;;;;;6.27;1.60;;;;;;;;;;5048789;28;20597;-69
2022/01/20 08:35:51;;;;;;;4.37;2.20;;;;;;;;;;5048508;28;20266;-69
2022/01/20 08:38:18;;;;;;;4.73;2.20;;;;;;;;;;5068725;28;20260;-69
2022/01/20 08:40:45;;;;;;;3.03;1.87;;;;;;;;;;5073818;28;20266;-69
2022/01/20 08:43:12;;;;;;;5.07;2.00;;;;;;;;;;5073494;28;20257;-69
2022/01/20 08:45:43;;;;;;;2.77;1.20;;;;;;;;;;5065955;28;20315;-69
2022/01/20 08:48:12;;;;;;;5.53;1.43;;;;;;;;;;5053874;28;20254;-69
2022/01/20 08:50:39;;;;;;;4.53;1.70;;;;;;;;;;5062276;28;20755;-69
2022/01/20 08:53:06;;;;;;;6.57;2.67;;;;;;;;;;5068432;28;21459;-69
2022/01/20 08:55:34;;;;;;;4.57;1.50;;;;;;;;;;5068446;28;20265;-69
2022/01/20 08:58:06;;;;;;;2.87;1.43;;;;;;;;;;5068445;28;20249;-69
2022/01/20 09:00:35;;;;;;;2.70;1.50;;;;;;;;;;5059866;28;20297;-69
2022/01/20 09:03:03;;;;;;;3.93;1.70;;;;;;;;;;5053368;28;20777;-69
2022/01/20 09:05:30;;;;;;;3.73;1.60;;;;;;;;;;5053529;28;20266;-68
2022/01/20 09:07:57;;;;;;;3.77;1.93;;;;;;;;;;5053010;28;20257;-68
2022/01/20 09:10:24;;;;;;;4.13;1.80;;;;;;;;;;5053288;28;20643;-69
2022/01/20 09:15:29;;;;;;;2.67;1.53;;;;;;;;;;5067788;28;20842;-72
2022/01/20 09:17:56;;;;;;;6.00;1.40;;;;;;;;;;5068098;28;20265;-71
2022/01/20 09:20:24;;;;;;;2.17;1.20;;;;;;;;;;5067849;28;20280;-71
2022/01/20 09:22:51;;;;;;;4.07;1.37;;;;;;;;;;5070212;28;20315;-71
2022/01/20 09:25:19;;;;;;;4.23;1.70;;;;;;;;;;5072800;28;20604;-71
2022/01/20 09:27:46;;;;;;;4.03;1.37;;;;;;;;;;5072886;28;20257;-71
2022/01/20 09:30:18;;;;;;;2.90;1.37;;;;;;;;;;5072363;28;20376;-71
2022/01/20 09:32:53;;;;;;;5.63;1.23;;;;;;;;;;5065454;28;20266;-71
2022/01/20 09:35:20;;;;;;;4.33;1.73;;;;;;;;;;5047595;28;20357;-70
2022/01/20 09:37:47;;;;;;;6.50;2.00;;;;;;;;;;5047933;28;20301;-70
2022/01/20 09:40:13;;;;;;;4.63;1.77;;;;;;;;;;5047868;28;20574;-71
2022/01/20 09:42:40;;;;;;;3.13;1.77;;;;;;;;;;5047237;28;20266;-71
2022/01/20 09:45:07;;;;;;;2.80;1.40;;;;;;;;;;5057085;28;20268;-71
2022/01/20 09:47:34;;;;;;;2.63;1.30;;;;;;;;;;5052773;28;20261;-70
2022/01/20 09:50:01;;;;;;;3.93;1.40;;;;;;;;;;5052568;28;20752;-70
2022/01/20 09:52:29;;;;;;;2.77;1.20;;;;;;;;;;5052387;28;20349;-71
2022/01/20 09:54:56;;;;;;;2.53;1.10;;;;;;;;;;5052584;28;20257;-71
2022/01/20 09:57:23;;;;;;;2.83;1.30;;;;;;;;;;5055070;28;20272;-71
2022/01/20 09:59:52;;;;;;;2.37;1.47;;;;;;;;;;5067380;28;20268;-71
2022/01/20 10:02:19;;;;;;;5.13;1.70;;;;;;;;;;5067547;28;20258;-70
2022/01/20 10:04:46;;;;;;;3.23;1.50;;;;;;;;;;5067336;28;20289;-70
2022/01/20 10:07:14;;;;;;;4.07;1.53;;;;;;;;;;5055771;28;20349;-70
2022/01/20 10:09:45;;;;;;;3.93;1.73;;;;;;;;;;5051984;28;20294;-70
2022/01/20 10:12:14;;;;;;;2.00;1.30;;;;;;;;;;5052775;28;20328;-71
2022/01/20 10:14:42;;;;;;;3.23;1.27;;;;;;;;;;5052302;28;20255;-70
2022/01/20 10:17:23;;;;;;;4.27;1.33;;;;;;;;;;5066150;28;20276;-71
2022/01/20 10:19:53;;;;;;;4.03;1.73;;;;;;;;;;5067191;28;20736;-70
2022/01/20 10:22:23;;;;;;;3.87;1.23;;;;;;;;;;5067087;28;20257;-71
2022/01/20 10:25:10;;;;;;;2.80;1.30;;;;;;;;;;5071374;28;20257;-71
2022/01/20 10:27:48;;;;;;;5.33;1.60;;;;;;;;;;5071668;28;20264;-71
2022/01/20 10:30:15;;;;;;;4.97;1.70;;;;;;;;;;5056070;28;20289;-70
2022/01/20 10:32:45;;;;;;;2.67;1.33;;;;;;;;;;5055796;28;20250;-71
2022/01/20 10:35:15;;;;;;;3.23;1.50;;;;;;;;;;5056216;28;20254;-70
2022/01/20 10:37:45;;;;;;;4.83;1.90;;;;;;;;;;5056202;28;20744;-71
2022/01/20 10:40:13;;;;;;;2.40;1.30;;;;;;;;;;5056491;28;20622;-71
2022/01/20 10:42:46;;;;;;;2.57;1.30;;;;;;;;;;5070978;28;20340;-71
2022/01/20 10:45:25;;;;;;;4.80;1.40;;;;;;;;;;5066519;28;20254;-71
2022/01/20 10:47:54;;;;;;;2.50;0.97;;;;;;;;;;5050998;28;20265;-70
2022/01/20 10:50:26;;;;;;;3.37;1.33;;;;;;;;;;5052493;28;20305;-70
2022/01/20 10:52:55;;;;;;;1.93;1.20;;;;;;;;;;5064308;28;20269;-70
2022/01/20 10:55:30;;;;;;;5.03;1.23;;;;;;;;;;5075086;28;20302;-71
2022/01/20 10:57:58;;;;;;;4.40;1.20;;;;;;;;;;5075864;28;20340;-71
2022/01/20 11:00:26;;;;;;;2.07;1.10;;;;;;;;;;5075814;28;20664;-70
2022/01/20 11:02:55;;;;;;;2.30;1.33;;;;;;;;;;5072928;28;20289;-70
2022/01/20 11:05:22;;;;;;;3.10;1.20;;;;;;;;;;5039285;28;20644;-70
2022/01/20 11:07:50;;;;;;;5.83;1.27;;;;;;;;;;5050088;28;20759;-71
2022/01/20 11:10:17;;;;;;;5.63;1.30;;;;;;;;;;5050564;28;20598;-71
2022/01/20 11:12:44;;;;;;;7.87;1.37;;;;;;;;;;5052657;28;20293;-71
2022/01/20 11:15:13;;;;;;;3.70;1.10;;;;;;;;;;5055579;28;20751;-70
2022/01/20 11:17:42;;;;;;;2.60;1.40;;;;;;;;;;5068480;28;20301;-70
2022/01/20 11:20:11;;;;;;;4.67;1.40;;;;;;;;;;5075353;28;20728;-71
2022/01/20 11:22:39;;;;;;;2.70;1.27;;;;;;;;;;5074804;28;20268;-70
2022/01/20 11:25:09;;;;;;;3.63;1.60;;;;;;;;;;5070774;28;20269;-71
2022/01/20 11:27:38;;;;;;;3.10;1.50;;;;;;;;;;5070075;28;20329;-70
2022/01/20 11:30:14;;;;;;;3.17;1.70;;;;;;;;;;5069962;28;20755;-70
2022/01/20 11:32:42;;;;;;;3.00;1.40;;;;;;;;;;5070159;28;20296;-71
2022/01/20 11:35:10;;;;;;;5.43;1.43;;;;;;;;;;5058303;28;20285;-70
2022/01/20 11:37:42;;;;;;;3.30;1.70;;;;;;;;;;5055172;28;20688;-70
2022/01/20 11:40:16;;;;;;;2.67;1.37;;;;;;;;;;5068557;28;20319;-70
2022/01/20 11:42:43;;;;;;;3.70;1.70;;;;;;;;;;5074735;28;20586;-70
2022/01/20 11:45:51;;;;;;;5.63;1.93;;;;;;;;;;5070972;28;20746;-71
2022/01/20 11:48:22;;;;;;;3.43;1.47;;;;;;;;;;4949300;29;20328;-71
2022/01/20 11:51:01;;;;;;;3.50;1.70;;;;;;;;;;5037657;28;20289;-70
2022/01/20 11:53:28;;;;;;;3.30;1.80;;;;;;;;;;5049601;28;20262;-71
2022/01/20 11:55:55;;;;;;;3.93;1.80;;;;;;;;;;5069829;28;20261;-70
2022/01/20 11:58:24;;;;;;;3.10;1.73;;;;;;;;;;5074476;28;20292;-70
2022/01/20 12:01:01;;;;;;;2.60;1.27;;;;;;;;;;5074719;28;20332;-70
2022/01/20 12:03:28;;;;;;;2.57;1.20;;;;;;;;;;5073779;28;20260;-71
2022/01/20 12:06:13;;;;;;;3.30;1.53;;;;;;;;;;5054521;28;20258;-71
2022/01/20 12:08:52;;;;;;;2.83;1.50;;;;;;;;;;5053169;28;20693;-71
2022/01/20 12:11:19;;;;;;;2.83;1.40;;;;;;;;;;5049100;28;20316;-71
2022/01/20 12:13:47;;;;;;;4.27;2.10;;;;;;;;;;5049201;28;20250;-71
2022/01/20 12:16:18;;;;;;;5.73;1.73;;;;;;;;;;5052686;28;20747;-70
2022/01/20 12:18:56;;;;;;;4.87;1.60;;;;;;;;;;5070601;28;20249;-70
2022/01/20 12:21:25;;;;;;;3.33;1.53;;;;;;;;;;5074176;28;20256;-70
2022/01/20 12:23:55;;;;;;;3.53;1.73;;;;;;;;;;5073560;28;20735;-71
2022/01/20 12:26:24;;;;;;;7.27;1.63;;;;;;;;;;5074135;28;20293;-70
2022/01/20 12:29:12;;;;;;;6.03;1.87;;;;;;;;;;5063095;28;20293;-70
2022/01/20 12:31:53;;;;;;;4.57;1.80;;;;;;;;;;5051164;28;20349;-71
2022/01/20 12:34:23;;;;;;;2.63;1.00;;;;;;;;;;5048565;28;20790;-70
2022/01/20 12:36:57;;;;;;;3.53;1.50;;;;;;;;;;5048869;28;21126;-71
2022/01/20 12:39:35;;;;;;;3.45;1.73;;;;;;;;;;5048908;28;20656;-70
2022/01/20 12:42:03;;;;;;;2.30;1.17;;;;;;;;;;5070626;28;20017;-71
2022/01/20 12:44:48;;;;;;;5.23;1.60;;;;;;;;;;5073887;28;20269;-70
2022/01/20 12:47:18;;;;;;;5.05;1.85;;;;;;;;;;5053877;28;20250;-70
2022/01/20 12:49:54;;;;;;;6.87;1.77;;;;;;;;;;5053585;28;20368;-70
2022/01/20 12:52:21;;;;;;;5.10;1.60;;;;;;;;;;5056086;28;20277;-70
2022/01/20 12:54:49;;;;;;;3.03;1.30;;;;;;;;;;5068606;28;20735;-71
2022/01/20 12:57:18;;;;;;;2.67;1.07;;;;;;;;;;5068747;28;20253;-70
2022/01/20 12:59:46;;;;;;;8.87;2.77;;;;;;;;;;5068429;28;20746;-70
2022/01/20 13:02:27;;;;;;;11.07;2.50;;;;;;;;;;5068327;28;20263;-70
2022/01/20 13:05:03;;;;;;;6.50;1.50;;;;;;;;;;5065697;28;20731;-70
2022/01/20 13:07:34;;;;;;;3.60;1.40;;;;;;;;;;5053398;28;20601;-71
2022/01/20 13:10:21;;;;;;;3.53;1.63;;;;;;;;;;5053296;28;20314;-70
2022/01/20 13:12:51;;;;;;;7.00;1.67;;;;;;;;;;5053080;28;20262;-70
2022/01/20 13:15:19;;;;;;;5.20;1.90;;;;;;;;;;5051963;28;20262;-70
2022/01/20 13:17:48;;;;;;;3.63;1.30;;;;;;;;;;5048226;28;20339;-70
2022/01/20 13:20:20;;;;;;;6.67;1.57;;;;;;;;;;5047945;28;20285;-70
2022/01/20 13:22:56;;;;;;;6.73;1.30;;;;;;;;;;5056549;28;20269;-70
2022/01/20 13:25:27;;;;;;;3.40;1.10;;;;;;;;;;5069078;28;20344;-70
2022/01/20 13:27:55;;;;;;;5.53;1.37;;;;;;;;;;5072895;28;20755;-70
2022/01/20 13:30:29;;;;;;;3.93;1.20;;;;;;;;;;5072820;28;20288;-70
2022/01/20 13:32:58;;;;;;;3.53;1.80;;;;;;;;;;5063401;28;20299;-70
2022/01/20 13:35:38;;;;;;;3.77;1.23;;;;;;;;;;5052415;28;20262;-71
2022/01/20 13:38:08;;;;;;;4.50;1.80;;;;;;;;;;5050367;28;20258;-70
2022/01/20 13:40:43;;;;;;;14.53;2.90;;;;;;;;;;5047477;28;20349;-71
2022/01/20 13:46:02;;;;;;;5.37;1.67;;;;;;;;;;5052818;28;20281;-70
2022/01/20 13:48:32;;;;;;;9.13;2.97;;;;;;;;;;5049806;28;20304;-70
2022/01/20 13:51:01;;;;;;;3.57;1.90;;;;;;;;;;5052285;28;20305;-70
2022/01/20 13:53:35;;;;;;;4.27;2.13;;;;;;;;;;5052138;28;20378;-71
2022/01/20 13:56:05;;;;;;;8.90;2.90;;;;;;;;;;5053246;28;20319;-70
2022/01/20 13:58:37;;;;;;;9.53;3.60;;;;;;;;;;5071938;28;20261;-70
2022/01/20 14:01:08;;;;;;;8.73;3.67;;;;;;;;;;5056780;28;20768;-70
2022/01/20 14:03:38;;;;;;;15.07;5.20;;;;;;;;;;5047261;28;20270;-70
2022/01/20 14:06:06;;;;;;;7.73;4.10;;;;;;;;;;5046843;28;20270;-71
2022/01/20 14:08:36;;;;;;;12.03;4.27;;;;;;;;;;5047291;28;20290;-71
2022/01/20 14:11:04;;;;;;;10.80;4.37;;;;;;;;;;5061086;28;20273;-70
2022/01/20 14:13:34;;;;;;;11.50;4.30;;;;;;;;;;5072176;28;20257;-71
2022/01/20 14:16:03;;;;;;;18.17;6.60;;;;;;;;;;5061470;28;20269;-71
2022/01/20 14:18:40;;;;;;;12.03;4.23;;;;;;;;;;5051799;28;20254;-71
2022/01/20 14:21:11;;;;;;;10.13;4.27;;;;;;;;;;5052282;28;20254;-72
2022/01/20 14:23:42;;;;;;;9.80;3.70;;;;;;;;;;5046621;28;20337;-71
2022/01/20 14:26:13;;;;;;;12.80;4.47;;;;;;;;;;5055246;28;20740;-71
2022/01/20 14:28:45;;;;;;;11.10;4.60;;;;;;;;;;5066438;28;20446;-71
2022/01/20 14:31:13;;;;;;;8.47;3.97;;;;;;;;;;5066892;28;20062;-71
2022/01/20 14:33:42;;;;;;;6.80;4.00;;;;;;;;;;5072009;28;20023;-71
2022/01/20 14:36:11;;;;;;;6.47;3.23;;;;;;;;;;5072227;28;20099;-72
2022/01/20 14:38:40;;;;;;;7.33;3.93;;;;;;;;;;5058698;28;20025;-71
2022/01/20 14:41:09;;;;;;;5.37;2.90;;;;;;;;;;5051973;28;20013;-69
2022/01/20 14:43:38;;;;;;;13.80;3.80;;;;;;;;;;5051510;28;20021;-69
2022/01/20 14:46:10;;;;;;;10.20;3.90;;;;;;;;;;5046733;28;20029;-69
2022/01/20 14:48:39;;;;;;;10.37;3.47;;;;;;;;;;5046631;28;20119;-68
2022/01/20 14:51:09;;;;;;;8.17;2.80;;;;;;;;;;5060311;28;20379;-69
2022/01/20 14:53:37;;;;;;;7.77;2.80;;;;;;;;;;5066952;28;20044;-69
2022/01/20 14:56:06;;;;;;;6.87;2.60;;;;;;;;;;5071729;28;20033;-69
2022/01/20 14:58:35;;;;;;;4.93;2.60;;;;;;;;;;5072068;28;20013;-69
2022/01/20 15:01:03;;;;;;;5.77;2.70;;;;;;;;;;5071858;28;20059;-69
2022/01/20 15:03:33;;;;;;;6.20;2.73;;;;;;;;;;5065128;28;20016;-69
2022/01/20 15:06:01;;;;;;;5.10;2.90;;;;;;;;;;5070768;28;20021;-69
2022/01/20 15:08:30;;;;;;;7.30;2.90;;;;;;;;;;5066356;28;20557;-69
2022/01/20 15:10:59;;;;;;;14.33;3.10;;;;;;;;;;5063281;28;20033;-69
2022/01/20 15:13:35;;;;;;;9.87;3.40;;;;;;;;;;5050722;28;20029;-69
2022/01/20 15:16:06;;;;;;;13.00;3.60;;;;;;;;;;5051330;28;20071;-69
2022/01/20 15:18:35;;;;;;;7.97;2.80;;;;;;;;;;5054832;28;20029;-69
2022/01/20 15:21:03;;;;;;;12.63;2.83;;;;;;;;;;5060427;28;20032;-69
2022/01/20 15:23:32;;;;;;;7.70;3.00;;;;;;;;;;5075416;28;20025;-69
2022/01/20 15:26:04;;;;;;;9.30;3.27;;;;;;;;;;5075461;28;20029;-69
2022/01/20 15:28:34;;;;;;;5.23;2.83;;;;;;;;;;5073523;28;20503;-69
2022/01/20 15:31:04;;;;;;;6.03;3.20;;;;;;;;;;5069689;28;20467;-70
2022/01/20 15:33:33;;;;;;;5.13;2.50;;;;;;;;;;5058980;28;20040;-69
2022/01/20 15:36:04;;;;;;;5.07;2.60;;;;;;;;;;5049935;28;20025;-69
2022/01/20 15:38:33;;;;;;;9.03;3.07;;;;;;;;;;5051448;28;20017;-69
2022/01/20 15:41:06;;;;;;;14.73;3.17;;;;;;;;;;5054820;28;20024;-69
2022/01/20 15:43:35;;;;;;;6.37;3.40;;;;;;;;;;5054769;28;20363;-69
2022/01/20 15:46:07;;;;;;;6.40;3.03;;;;;;;;;;5059724;28;20034;-69
2022/01/20 15:48:37;;;;;;;7.70;3.33;;;;;;;;;;5054904;28;20025;-69
2022/01/20 15:51:06;;;;;;;6.00;3.23;;;;;;;;;;5052516;28;20025;-69
2022/01/20 15:53:36;;;;;;;9.67;3.87;;;;;;;;;;5049847;28;20078;-70
2022/01/20 15:56:04;;;;;;;7.33;3.43;;;;;;;;;;5049244;28;20025;-70